Airfield :
LOGIN :

Register | Disclaimer

   EN    FR    IT 

 










Legend :    VFR   Marginal VFR   IFR   Intensive IFR   Very Intensive IFR
Visi :
Ceiling :
>= 8 km
>= 3000ft
5 to 8 km
1000 to 3000 ft
1500m to 5 km
500 to 1000 ft
800 to 1500m
200 to 500 ft
< 800m
< 200 ft
Symbols :   Thunderstorms  Fog  Heavy snow  Heavy precipitations  Wind > 20 kt
SIGMETs :     Misc.  Thunderstorms  Icing  Turbulence  Mountain Waves  Volcanic Ashes







- Airport Elevation : 75 ft
- IATA code : YEO


EGDY - RNAS Yeovilton

CURRENT METAR :
  • 181650Z AUTO 14014KT 9999 BKN028/// 06/03 Q1010 RERA

EXPIRED METARs :
  • 181550Z AUTO 15014KT 9999 -RA BKN029/// BKN039/// 06/01 Q1011
  • 181450Z 15017KT 9999 FEW020 BKN040 06/00 Q1011 BLU TEMPO 7000 -RA SCT020 WHT

TAF TAF EGDY
Valid from the 18 at 09:00 until the 18 at 18:00 UTC


180732Z 1809/1818 15015G25KT 9999 FEW010 BKN030
PROB40
TEMPO 1809/1816 7000 -RA FEW010 SCT020
BECMG 1812/1816 7000 -RA SCT010
PROB40
TEMPO 1816/1818 3000 +RA SCT006
No reported NOTAMs for that airfield.



MET'MAP, your aeronautical weather chart ! - Copyright ORBIFLY December 2007 - Disclaimer

ORBIFLY MET'MAP TEAM :

Programming & Development : Alexandra Zaïnal
Concept & Development : Baudouin d'Aumeries
Co-Development & Prog : Marc-Olivier Méhu
Technical & hardware support : Manuel Goepfert

Contact : metmap@orbifly.com




SOURCES & CREDITS :

   NOAA